Diane H — WUR7250 — position and weather

sailwx.info

Track history (hours):
 
Tides and Currents Weather Stations Pressure Air Temp Water Temp Dewpoint Dewpoint Depression Visibility Wind Speed Wind Dir Waves Ship Positions

Diane H

Owner: BOYER TOWING INC, KETCHIKAN, AK. More information available from US FCC via Universal Licensing System and Coast Guard Vessel Documentation Center.

Last reported at 2017-Oct-17 22:02 UTC. Time now 2017-Oct-22 20:58 UTC.
Position N 47°33' W 122°21'.

Type: Towing. MMSI: 366673090.

Date/timePositionNaut miles runAvg speedWind from/ knotsBaromVisibWave heightAir tempDewpointWater temp
2017-Oct-17 22:02N 47°33' W 122°21'111.6
2017-Oct-17 21:55N 47°32' W 122°20'2 4.6
2017-Oct-17 21:30N 47°34' W 122°21'1 2.6
2017-Oct-17 21:00N 47°35' W 122°21'0 0.1
2017-Oct-17 20:30N 47°35' W 122°21'0 0.0
2017-Oct-17 20:00N 47°35' W 122°21'0 0.0
2017-Oct-17 19:30N 47°35' W 122°21'0 0.0
2017-Oct-17 19:00N 47°35' W 122°21'0 0.0
2017-Oct-17 18:30N 47°35' W 122°21'1 2.6
2017-Oct-17 18:00N 47°34' W 122°21'2 0.1
2017-Oct-17 04:04N 47°32' W 122°20'0 0.0
2017-Oct-17 04:00N 47°32' W 122°20'3 5.6
2017-Oct-17 03:30N 47°35' W 122°22'0 0.2
2017-Oct-17 03:00N 47°35' W 122°22'1 3.0
2017-Oct-17 02:30N 47°36' W 122°20'1 1.8
2017-Oct-17 02:00N 47°36' W 122°21'2 3.6
2017-Oct-17 01:30N 47°34' W 122°21'2 3.5
2017-Oct-17 01:00N 47°32' W 122°20'0 0.2
2017-Oct-17 00:30N 47°32' W 122°20'0 0.8
2017-Oct-17 00:00N 47°32' W 122°19'0 0.1
2017-Oct-16 23:30N 47°32' W 122°19'0 0.5
2017-Oct-16 23:00N 47°32' W 122°20'0 0.0
2017-Oct-16 22:30N 47°32' W 122°20'0 0.0
2017-Oct-16 22:00N 47°32' W 122°20'0 0.0
2017-Oct-16 21:30N 47°32' W 122°20'  
2017-Oct-09 17:29N 47°34' W 122°21'2 4.0
2017-Oct-09 17:00N 47°36' W 122°20'2 3.6
2017-Oct-09 16:30N 47°34' W 122°21'2 4.8
2017-Oct-09 16:00N 47°32' W 122°20'  
Track history (hours):
 
Tides and Currents Weather Stations Pressure Air Temp Water Temp Dewpoint Dewpoint Depression Visibility Wind Speed Wind Dir Waves Ship Positions

Diane H

Owner: BOYER TOWING INC, KETCHIKAN, AK. More information available from US FCC via Universal Licensing System and Coast Guard Vessel Documentation Center.

Last reported at 2017-Oct-17 22:02 UTC. Time now 2017-Oct-22 20:58 UTC.
Position N 47°33' W 122°21'.

Type: Towing. MMSI: 366673090.

Date/timePositionNaut miles runAvg speedWind from/ knotsBaromVisibWave heightAir tempDewpointWater temp
2017-Oct-17 22:02N 47°33' W 122°21'111.6
2017-Oct-17 21:55N 47°32' W 122°20'2 4.6
2017-Oct-17 21:30N 47°34' W 122°21'1 2.6
2017-Oct-17 21:00N 47°35' W 122°21'0 0.1
2017-Oct-17 20:30N 47°35' W 122°21'0 0.0
2017-Oct-17 20:00N 47°35' W 122°21'0 0.0
2017-Oct-17 19:30N 47°35' W 122°21'0 0.0
2017-Oct-17 19:00N 47°35' W 122°21'0 0.0
2017-Oct-17 18:30N 47°35' W 122°21'1 2.6
2017-Oct-17 18:00N 47°34' W 122°21'2 0.1
2017-Oct-17 04:04N 47°32' W 122°20'0 0.0
2017-Oct-17 04:00N 47°32' W 122°20'3 5.6
2017-Oct-17 03:30N 47°35' W 122°22'0 0.2
2017-Oct-17 03:00N 47°35' W 122°22'1 3.0
2017-Oct-17 02:30N 47°36' W 122°20'1 1.8
2017-Oct-17 02:00N 47°36' W 122°21'2 3.6
2017-Oct-17 01:30N 47°34' W 122°21'2 3.5
2017-Oct-17 01:00N 47°32' W 122°20'0 0.2
2017-Oct-17 00:30N 47°32' W 122°20'0 0.8
2017-Oct-17 00:00N 47°32' W 122°19'0 0.1
2017-Oct-16 23:30N 47°32' W 122°19'0 0.5
2017-Oct-16 23:00N 47°32' W 122°20'0 0.0
2017-Oct-16 22:30N 47°32' W 122°20'0 0.0
2017-Oct-16 22:00N 47°32' W 122°20'0 0.0
2017-Oct-16 21:30N 47°32' W 122°20'  
2017-Oct-09 17:29N 47°34' W 122°21'2 4.0
2017-Oct-09 17:00N 47°36' W 122°20'2 3.6
2017-Oct-09 16:30N 47°34' W 122°21'2 4.8
2017-Oct-09 16:00N 47°32' W 122°20'  

Dump ship's entire track history